Time;durP1;ratioP1;P1;durP2;ratioP2;P2;SDS_P1;SDS_P2;PMS_P1;PMS_P2;Temp;Humidity;BMP_temperature;BMP_pressure;BME280_temperature;BME280_humidity;BME280_pressure;Samples;Min_cycle;Max_cycle;Signal;HPM_P1;HPM_P2
2023/03/19 00:01:41;;;;;;;0.00;0.00;;;10.80;88.90;;;;;;5046781;28;20114;-71
2023/03/19 00:04:06;;;;;;;0.00;0.00;;;10.80;88.80;;;;;;5076450;28;20040;-71
2023/03/19 00:06:33;;;;;;;0.00;0.00;;;10.80;88.90;;;;;;5090522;28;20055;-72
2023/03/19 00:08:58;;;;;;;0.00;0.00;;;10.80;88.90;;;;;;5090224;28;20097;-71
2023/03/19 00:11:24;;;;;;;0.00;0.00;;;10.80;88.80;;;;;;5091474;28;20048;-71
2023/03/19 00:13:50;;;;;;;0.10;0.10;;;10.80;88.70;;;;;;5091427;28;20063;-71
2023/03/19 00:16:16;;;;;;;0.00;0.00;;;10.80;88.70;;;;;;5082099;28;20048;-71
2023/03/19 00:18:41;;;;;;;0.00;0.00;;;10.80;88.90;;;;;;5080496;28;20389;-71
2023/03/19 00:21:07;;;;;;;0.00;0.00;;;10.80;89.10;;;;;;5091147;28;20047;-71
2023/03/19 00:23:34;;;;;;;0.00;0.00;;;10.80;89.20;;;;;;5091475;28;20059;-71
2023/03/19 00:26:00;;;;;;;0.00;0.00;;;10.80;89.20;;;;;;5090693;28;20054;-71
2023/03/19 00:28:26;;;;;;;0.00;0.00;;;10.80;89.20;;;;;;5085401;28;20049;-71
2023/03/19 00:30:52;;;;;;;0.00;0.00;;;10.70;89.20;;;;;;5071279;28;20051;-71
2023/03/19 00:33:19;;;;;;;0.00;0.00;;;10.70;89.30;;;;;;5070826;28;20056;-71
2023/03/19 00:35:45;;;;;;;0.00;0.00;;;10.70;89.40;;;;;;5055989;28;20052;-71
2023/03/19 00:38:10;;;;;;;0.00;0.00;;;10.70;89.40;;;;;;5070767;28;20109;-71
2023/03/19 00:40:37;;;;;;;0.00;0.00;;;10.70;89.50;;;;;;5070594;28;20109;-71
2023/03/19 00:43:02;;;;;;;0.00;0.00;;;10.70;89.50;;;;;;5070644;28;20119;-71
2023/03/19 00:45:29;;;;;;;0.00;0.00;;;10.70;89.50;;;;;;5070601;28;20120;-71
2023/03/19 00:47:56;;;;;;;0.00;0.00;;;10.70;89.50;;;;;;5071929;28;20047;-71
2023/03/19 00:50:23;;;;;;;0.30;0.30;;;10.70;89.40;;;;;;5055795;28;20048;-71
2023/03/19 00:52:50;;;;;;;0.00;0.00;;;10.80;89.40;;;;;;5090880;28;20068;-71
2023/03/19 00:55:15;;;;;;;0.00;0.00;;;10.80;89.40;;;;;;5071924;28;20623;-71
2023/03/19 00:57:41;;;;;;;0.00;0.00;;;10.80;89.30;;;;;;5090721;28;20047;-71
2023/03/19 01:00:07;;;;;;;0.00;0.00;;;10.80;89.40;;;;;;5089163;28;20470;-71
2023/03/19 01:02:33;;;;;;;0.17;0.17;;;10.80;89.30;;;;;;5058507;28;20478;-71
2023/03/19 01:04:58;;;;;;;0.00;0.00;;;10.70;89.40;;;;;;5036066;28;20061;-71
2023/03/19 01:07:24;;;;;;;0.00;0.00;;;10.80;89.30;;;;;;5089809;28;20036;-71
2023/03/19 01:09:50;;;;;;;0.10;0.10;;;10.70;89.40;;;;;;5089877;28;20036;-71
2023/03/19 01:12:18;;;;;;;0.00;0.00;;;10.70;89.40;;;;;;5090639;28;20040;-71
2023/03/19 01:14:44;;;;;;;0.00;0.00;;;10.70;89.40;;;;;;5072487;28;20408;-72
2023/03/19 01:17:09;;;;;;;0.00;0.00;;;10.70;89.50;;;;;;5053892;28;20048;-71
2023/03/19 01:19:35;;;;;;;0.00;0.00;;;10.70;89.50;;;;;;5048990;28;20044;-71
2023/03/19 01:22:03;;;;;;;0.00;0.00;;;10.70;89.60;;;;;;5090069;28;20056;-71
2023/03/19 01:24:30;;;;;;;0.00;0.00;;;10.80;89.60;;;;;;5090408;28;20056;-71
2023/03/19 01:26:56;;;;;;;0.00;0.00;;;10.70;89.70;;;;;;5075210;28;20048;-71
2023/03/19 01:29:21;;;;;;;0.03;0.03;;;10.70;89.80;;;;;;5069642;28;20039;-71
2023/03/19 01:31:47;;;;;;;0.00;0.00;;;10.70;89.90;;;;;;5080616;28;20039;-71
2023/03/19 01:34:12;;;;;;;0.00;0.00;;;10.70;90.00;;;;;;5089955;28;20090;-71
2023/03/19 01:36:38;;;;;;;0.00;0.00;;;10.60;90.00;;;;;;5089487;28;20044;-71
2023/03/19 01:39:04;;;;;;;0.00;0.00;;;10.60;90.10;;;;;;5071192;28;20050;-71
2023/03/19 01:41:30;;;;;;;0.00;0.00;;;10.70;90.20;;;;;;5089739;28;20404;-71
2023/03/19 01:43:55;;;;;;;0.00;0.00;;;10.60;90.10;;;;;;5055634;28;20121;-71
2023/03/19 01:46:31;;;;;;;0.00;0.00;;;10.70;90.20;;;;;;5063149;28;20067;-71
2023/03/19 01:48:59;;;;;;;0.00;0.00;;;10.60;90.30;;;;;;5069946;28;20053;-71
2023/03/19 01:51:29;;;;;;;0.10;0.10;;;10.70;90.30;;;;;;5069275;28;20040;-71
2023/03/19 01:54:03;;;;;;;0.00;0.00;;;10.60;90.30;;;;;;5069583;28;20044;-71
2023/03/19 01:56:33;;;;;;;0.00;0.00;;;10.60;90.30;;;;;;5069148;28;20106;-71
2023/03/19 01:59:13;;;;;;;0.00;0.00;;;10.60;90.20;;;;;;5051440;28;20527;-71
2023/03/19 02:01:56;;;;;;;0.00;0.00;;;10.60;90.30;;;;;;5069216;28;20651;-71
2023/03/19 02:04:24;;;;;;;0.00;0.00;;;10.60;90.30;;;;;;5069313;28;20826;-71
2023/03/19 02:06:50;;;;;;;0.00;0.00;;;10.60;90.30;;;;;;5069462;28;20052;-71
2023/03/19 02:09:17;;;;;;;0.00;0.00;;;10.60;90.30;;;;;;5078407;28;20048;-71
2023/03/19 02:11:44;;;;;;;0.00;0.00;;;10.60;90.40;;;;;;5089531;28;20077;-72
2023/03/19 02:14:12;;;;;;;0.00;0.00;;;10.60;90.60;;;;;;5069829;28;20403;-71
2023/03/19 02:16:38;;;;;;;0.00;0.00;;;10.60;90.70;;;;;;5072791;28;20040;-71
2023/03/19 02:19:08;;;;;;;0.00;0.00;;;10.60;90.90;;;;;;5069262;28;20055;-71
2023/03/19 02:21:34;;;;;;;0.22;0.22;;;10.60;91.00;;;;;;5069056;28;20048;-72
2023/03/19 02:24:10;;;;;;;0.00;0.00;;;10.60;91.20;;;;;;5070211;28;20052;-71
2023/03/19 02:26:36;;;;;;;0.00;0.00;;;10.60;91.30;;;;;;5080010;28;20047;-71
2023/03/19 02:29:03;;;;;;;0.00;0.00;;;10.60;91.60;;;;;;5088578;28;20044;-71
2023/03/19 02:31:29;;;;;;;0.00;0.00;;;10.60;91.60;;;;;;5054380;28;20089;-71
2023/03/19 02:34:04;;;;;;;0.00;0.00;;;10.60;91.70;;;;;;5088170;28;20055;-71
2023/03/19 02:36:43;;;;;;;0.00;0.00;;;10.60;91.90;;;;;;5079515;28;20075;-71
2023/03/19 02:39:18;;;;;;;0.00;0.00;;;10.60;92.00;;;;;;5035841;28;20052;-71
2023/03/19 02:41:44;;;;;;;0.10;0.10;;;10.50;91.80;;;;;;5069377;28;20052;-71
2023/03/19 02:44:11;;;;;;;0.00;0.00;;;10.60;91.90;;;;;;5087858;28;20036;-71
2023/03/19 02:46:37;;;;;;;2.38;0.88;;;10.60;92.00;;;;;;5098605;28;20040;-71
2023/03/19 02:49:03;;;;;;;0.00;0.00;;;10.50;92.00;;;;;;5089471;28;20044;-71
2023/03/19 02:51:28;;;;;;;0.00;0.00;;;10.50;92.10;;;;;;5071433;28;20055;-71
2023/03/19 02:53:54;;;;;;;0.00;0.00;;;10.50;92.10;;;;;;5036476;28;20772;-71
2023/03/19 02:56:20;;;;;;;0.17;0.17;;;10.50;92.00;;;;;;5095134;28;20131;-71
2023/03/19 02:58:45;;;;;;;0.00;0.00;;;10.50;92.00;;;;;;5069168;28;20040;-71
2023/03/19 03:01:11;;;;;;;0.00;0.00;;;10.50;92.10;;;;;;5066445;28;20075;-71
2023/03/19 03:03:37;;;;;;;0.10;0.10;;;10.50;92.00;;;;;;5072965;28;20147;-71
2023/03/19 03:06:02;;;;;;;0.00;0.00;;;10.50;92.10;;;;;;5059022;28;20069;-71
2023/03/19 03:08:28;;;;;;;0.00;0.00;;;10.50;92.10;;;;;;5068616;28;20040;-71
2023/03/19 03:10:53;;;;;;;0.00;0.00;;;10.50;92.10;;;;;;5085246;28;20052;-71
2023/03/19 03:13:20;;;;;;;0.10;0.10;;;10.50;92.00;;;;;;5087991;28;20048;-71
2023/03/19 03:15:45;;;;;;;0.00;0.00;;;10.50;92.00;;;;;;5086177;28;20208;-71
2023/03/19 03:18:11;;;;;;;0.00;0.00;;;10.50;92.00;;;;;;5052421;28;20052;-71
2023/03/19 03:20:37;;;;;;;0.00;0.00;;;10.50;91.90;;;;;;5067926;28;20512;-71
2023/03/19 03:23:02;;;;;;;0.00;0.00;;;10.50;91.90;;;;;;5038306;28;20041;-71
2023/03/19 03:25:29;;;;;;;0.10;0.10;;;10.50;91.80;;;;;;5069871;28;20098;-71
2023/03/19 03:27:55;;;;;;;0.00;0.00;;;10.50;91.90;;;;;;5075292;28;20051;-71
2023/03/19 03:30:20;;;;;;;0.00;0.00;;;10.50;91.90;;;;;;5088387;28;20048;-71
2023/03/19 03:32:46;;;;;;;0.00;0.00;;;10.50;91.80;;;;;;5086083;28;20040;-71
2023/03/19 03:35:12;;;;;;;0.10;0.10;;;10.50;91.90;;;;;;5086778;28;20039;-71
2023/03/19 03:37:38;;;;;;;0.00;0.00;;;10.50;91.90;;;;;;5084410;28;20043;-71
2023/03/19 03:40:07;;;;;;;0.00;0.00;;;10.50;91.90;;;;;;5083020;28;20062;-71
2023/03/19 03:42:35;;;;;;;0.00;0.00;;;10.50;91.90;;;;;;5068902;28;20117;-71
2023/03/19 03:45:00;;;;;;;0.00;0.00;;;10.40;91.90;;;;;;5077729;28;20481;-71
2023/03/19 03:47:26;;;;;;;0.00;0.00;;;10.40;91.90;;;;;;5083796;28;20055;-71
2023/03/19 03:49:51;;;;;;;0.00;0.00;;;10.50;91.90;;;;;;5104182;28;20126;-71
2023/03/19 03:52:17;;;;;;;0.00;0.00;;;10.40;91.90;;;;;;5109195;28;20055;-71
2023/03/19 03:54:42;;;;;;;0.00;0.00;;;10.50;91.90;;;;;;5037119;28;20485;-71
2023/03/19 03:57:08;;;;;;;0.00;0.00;;;10.50;91.80;;;;;;5071439;28;20076;-71
2023/03/19 03:59:34;;;;;;;0.00;0.00;;;10.50;91.90;;;;;;5071615;28;20402;-71
2023/03/19 04:01:59;;;;;;;0.10;0.10;;;10.40;91.90;;;;;;5071753;28;20041;-71
2023/03/19 04:04:25;;;;;;;0.00;0.00;;;10.40;92.00;;;;;;5088288;28;20043;-71
2023/03/19 04:06:51;;;;;;;0.00;0.00;;;10.40;92.00;;;;;;5091506;28;20142;-71
2023/03/19 04:09:16;;;;;;;0.00;0.00;;;10.40;92.00;;;;;;5092028;28;20044;-71
2023/03/19 04:11:42;;;;;;;0.00;0.00;;;10.40;92.00;;;;;;5073728;28;20058;-71
2023/03/19 04:14:08;;;;;;;0.00;0.00;;;10.40;91.90;;;;;;5090658;28;20493;-71
2023/03/19 04:16:34;;;;;;;0.00;0.00;;;10.40;91.90;;;;;;5091249;28;20504;-71
2023/03/19 04:18:59;;;;;;;0.00;0.00;;;10.30;91.90;;;;;;5091988;28;20071;-71
2023/03/19 04:21:25;;;;;;;0.00;0.00;;;10.40;91.90;;;;;;5080293;28;20045;-71
2023/03/19 04:23:51;;;;;;;0.00;0.00;;;10.30;91.80;;;;;;5071681;28;20045;-71
2023/03/19 04:26:16;;;;;;;0.00;0.00;;;10.30;91.70;;;;;;5071285;28;20154;-71
2023/03/19 04:28:42;;;;;;;0.00;0.00;;;10.30;91.70;;;;;;5071054;28;20055;-71
2023/03/19 04:31:09;;;;;;;0.00;0.00;;;10.20;91.60;;;;;;5074522;28;20433;-71
2023/03/19 04:33:35;;;;;;;0.00;0.00;;;10.20;91.60;;;;;;5089784;28;20443;-71
2023/03/19 04:36:02;;;;;;;0.00;0.00;;;10.10;91.60;;;;;;5091443;28;20090;-71
2023/03/19 04:38:28;;;;;;;0.00;0.00;;;10.10;91.50;;;;;;5091041;28;20128;-71
2023/03/19 04:40:57;;;;;;;0.00;0.00;;;10.10;91.50;;;;;;5091069;28;20139;-71
2023/03/19 04:43:23;;;;;;;0.00;0.00;;;10.00;91.40;;;;;;5082775;28;20451;-71
2023/03/19 04:45:49;;;;;;;0.00;0.00;;;10.00;91.30;;;;;;5076782;28;20043;-71
2023/03/19 04:48:15;;;;;;;0.00;0.00;;;9.90;91.30;;;;;;5111573;28;20469;-71
2023/03/19 04:50:41;;;;;;;0.00;0.00;;;9.80;91.30;;;;;;5100496;28;20076;-71
2023/03/19 04:53:07;;;;;;;0.00;0.00;;;9.80;91.30;;;;;;5076256;28;20082;-71
2023/03/19 04:55:33;;;;;;;0.00;0.00;;;9.80;91.20;;;;;;5090788;28;20052;-71
2023/03/19 04:58:00;;;;;;;0.00;0.00;;;9.70;91.10;;;;;;5090673;28;20048;-71
2023/03/19 05:00:26;;;;;;;0.00;0.00;;;9.70;91.00;;;;;;5066487;28;20459;-71
2023/03/19 05:02:52;;;;;;;0.00;0.00;;;9.60;90.90;;;;;;5054892;28;20040;-71
2023/03/19 05:05:18;;;;;;;0.28;0.28;;;9.60;91.00;;;;;;5077563;28;20097;-71
2023/03/19 05:07:43;;;;;;;0.00;0.00;;;9.60;91.00;;;;;;5086159;28;20421;-71
2023/03/19 05:10:10;;;;;;;0.00;0.00;;;9.50;91.00;;;;;;5090588;28;20123;-71
2023/03/19 05:12:35;;;;;;;0.10;0.10;;;9.50;91.00;;;;;;5089563;28;20431;-71
2023/03/19 05:15:01;;;;;;;0.00;0.00;;;9.40;91.00;;;;;;5071277;28;20037;-71
2023/03/19 05:17:27;;;;;;;0.00;0.00;;;9.40;91.00;;;;;;5072355;28;20048;-71
2023/03/19 05:19:53;;;;;;;0.00;0.00;;;9.30;90.90;;;;;;5056139;28;20509;-71
2023/03/19 05:22:19;;;;;;;0.00;0.00;;;9.30;90.90;;;;;;5065193;28;20035;-71
2023/03/19 05:24:45;;;;;;;0.00;0.00;;;9.30;90.90;;;;;;5075940;28;20598;-71
2023/03/19 05:27:11;;;;;;;0.20;0.20;;;9.30;90.80;;;;;;5110641;28;20046;-71
2023/03/19 05:29:37;;;;;;;0.00;0.00;;;9.30;90.80;;;;;;5110507;28;20413;-71
2023/03/19 05:32:03;;;;;;;0.00;0.00;;;9.20;90.80;;;;;;5110029;28;20050;-71
2023/03/19 05:34:29;;;;;;;0.10;0.10;;;9.20;90.80;;;;;;5068728;28;20048;-71
2023/03/19 05:36:55;;;;;;;0.00;0.00;;;9.20;90.70;;;;;;5087670;28;20509;-71
2023/03/19 05:39:20;;;;;;;0.00;0.00;;;9.20;90.60;;;;;;5089115;28;20412;-71
2023/03/19 05:41:46;;;;;;;0.00;0.00;;;9.10;90.50;;;;;;5089105;28;20040;-71
2023/03/19 05:44:12;;;;;;;0.00;0.00;;;9.10;90.40;;;;;;5086927;28;20140;-71
2023/03/19 05:46:37;;;;;;;0.00;0.00;;;9.00;90.40;;;;;;5070308;28;20044;-70
2023/03/19 05:49:03;;;;;;;0.00;0.00;;;9.00;90.40;;;;;;5086510;28;20883;-71
2023/03/19 05:51:29;;;;;;;0.00;0.00;;;9.00;90.30;;;;;;5087783;28;20036;-71
2023/03/19 05:53:55;;;;;;;0.00;0.00;;;8.90;90.30;;;;;;5087938;28;20048;-71
2023/03/19 05:56:20;;;;;;;0.00;0.00;;;8.90;90.20;;;;;;5088411;28;20112;-71
2023/03/19 05:58:46;;;;;;;0.10;0.10;;;8.90;90.40;;;;;;5082450;28;20567;-71
2023/03/19 06:01:12;;;;;;;0.00;0.00;;;8.90;90.40;;;;;;5088208;28;20047;-71
2023/03/19 06:03:37;;;;;;;0.00;0.00;;;8.80;90.40;;;;;;5068070;28;20055;-71
2023/03/19 06:06:03;;;;;;;0.00;0.00;;;8.90;90.50;;;;;;5087813;28;20062;-71
2023/03/19 06:08:29;;;;;;;0.47;0.47;;;8.90;90.60;;;;;;5086468;28;20048;-71
2023/03/19 06:10:54;;;;;;;0.00;0.00;;;8.90;90.70;;;;;;5083094;28;20047;-71
2023/03/19 06:13:20;;;;;;;0.30;0.30;;;8.90;90.70;;;;;;5050982;28;20052;-71
2023/03/19 06:15:48;;;;;;;0.00;0.00;;;8.90;90.80;;;;;;5062691;28;20039;-71
2023/03/19 06:18:13;;;;;;;0.00;0.00;;;8.90;90.80;;;;;;5084337;28;20075;-71
2023/03/19 06:20:39;;;;;;;0.00;0.00;;;8.90;90.90;;;;;;5083160;28;20078;-71
2023/03/19 06:23:05;;;;;;;0.00;0.00;;;8.90;91.00;;;;;;5087588;28;20051;-71
2023/03/19 06:25:31;;;;;;;0.00;0.00;;;8.90;91.10;;;;;;5086728;28;20122;-71
2023/03/19 06:27:56;;;;;;;0.80;0.30;;;8.90;91.00;;;;;;5088850;28;20032;-71
2023/03/19 06:30:22;;;;;;;0.65;0.65;;;8.90;91.00;;;;;;5086904;28;20040;-70
2023/03/19 06:32:47;;;;;;;0.00;0.00;;;9.00;91.00;;;;;;5087297;28;20052;-71
2023/03/19 06:35:13;;;;;;;0.00;0.00;;;9.00;91.00;;;;;;5079482;28;20123;-71
2023/03/19 06:37:38;;;;;;;0.00;0.00;;;8.90;90.90;;;;;;5063849;28;20052;-72
2023/03/19 06:40:05;;;;;;;0.00;0.00;;;8.90;90.80;;;;;;5084665;28;20500;-71
2023/03/19 06:42:31;;;;;;;0.22;0.15;;;8.90;91.00;;;;;;5082837;28;20048;-71
2023/03/19 06:44:56;;;;;;;0.10;0.10;;;8.90;91.00;;;;;;5067631;28;20044;-71
2023/03/19 06:47:22;;;;;;;0.00;0.00;;;8.90;91.10;;;;;;5067495;28;20542;-71
2023/03/19 06:49:48;;;;;;;0.10;0.10;;;8.90;91.20;;;;;;5084347;28;20047;-71
2023/03/19 06:52:13;;;;;;;0.00;0.00;;;8.90;91.20;;;;;;5068561;28;20077;-71
2023/03/19 06:54:39;;;;;;;0.10;0.10;;;8.90;91.40;;;;;;5087468;28;20055;-71
2023/03/19 06:57:05;;;;;;;0.00;0.00;;;9.00;91.30;;;;;;5086571;28;20056;-71
2023/03/19 06:59:30;;;;;;;0.00;0.00;;;9.10;91.40;;;;;;5081803;28;20044;-70
2023/03/19 07:01:56;;;;;;;0.00;0.00;;;9.00;91.50;;;;;;5083389;28;20092;-71
2023/03/19 07:04:21;;;;;;;0.03;0.03;;;9.00;91.50;;;;;;5084078;28;20055;-71
2023/03/19 07:06:47;;;;;;;2.58;0.88;;;9.10;91.60;;;;;;5086797;28;20044;-71
2023/03/19 07:09:12;;;;;;;0.00;0.00;;;9.10;91.80;;;;;;5070005;28;20047;-71
2023/03/19 07:11:38;;;;;;;0.00;0.00;;;9.10;91.90;;;;;;5085174;28;20508;-70
2023/03/19 07:14:04;;;;;;;0.45;0.45;;;9.20;91.90;;;;;;5087014;28;20105;-71
2023/03/19 07:16:30;;;;;;;0.15;0.15;;;9.20;92.00;;;;;;5070577;28;20041;-71
2023/03/19 07:18:55;;;;;;;0.40;0.40;;;9.20;92.00;;;;;;5072093;28;20055;-70
2023/03/19 07:21:21;;;;;;;0.20;0.20;;;9.20;92.00;;;;;;5071249;28;20036;-71
2023/03/19 07:23:48;;;;;;;2.05;1.40;;;9.20;92.10;;;;;;5074451;28;20041;-71
2023/03/19 07:26:13;;;;;;;0.40;0.30;;;9.20;92.30;;;;;;5060061;28;20051;-70
2023/03/19 07:28:39;;;;;;;0.00;0.00;;;9.10;92.30;;;;;;5085248;28;20079;-70
2023/03/19 07:31:05;;;;;;;0.30;0.30;;;9.10;92.30;;;;;;5083952;28;20052;-71
2023/03/19 07:33:31;;;;;;;0.57;0.57;;;9.10;92.20;;;;;;5103096;28;20079;-71
2023/03/19 07:35:57;;;;;;;0.22;0.20;;;9.10;92.20;;;;;;5079022;28;20071;-71
2023/03/19 07:38:22;;;;;;;0.20;0.20;;;9.10;92.40;;;;;;5092017;28;20047;-71
2023/03/19 07:40:49;;;;;;;0.10;0.10;;;9.00;92.30;;;;;;5071371;28;20076;-71
2023/03/19 07:43:15;;;;;;;1.05;1.00;;;9.00;92.30;;;;;;5071394;28;20410;-71
2023/03/19 07:45:41;;;;;;;3.40;0.55;;;9.00;92.00;;;;;;5085957;28;20059;-71
2023/03/19 07:48:07;;;;;;;0.17;0.17;;;9.00;92.10;;;;;;5084613;28;20052;-71
2023/03/19 07:50:33;;;;;;;0.63;0.63;;;8.90;92.20;;;;;;5087070;28;20040;-70
2023/03/19 07:52:59;;;;;;;0.65;0.65;;;8.90;92.20;;;;;;5075163;28;20052;-70
2023/03/19 07:55:24;;;;;;;0.10;0.10;;;8.90;92.30;;;;;;5090177;28;20035;-70
2023/03/19 07:57:50;;;;;;;0.40;0.40;;;8.90;92.40;;;;;;5097811;28;20055;-71
2023/03/19 08:00:16;;;;;;;0.20;0.20;;;8.90;92.50;;;;;;5073274;28;20047;-70
2023/03/19 08:02:42;;;;;;;0.10;0.10;;;8.90;92.60;;;;;;5085079;28;20080;-70
2023/03/19 08:05:09;;;;;;;0.20;0.20;;;8.90;92.60;;;;;;5088179;28;20083;-71
2023/03/19 08:07:35;;;;;;;1.08;0.65;;;8.90;92.60;;;;;;5081500;28;20083;-71
2023/03/19 08:10:02;;;;;;;0.00;0.00;;;8.90;92.60;;;;;;5082238;28;20040;-72
2023/03/19 08:12:28;;;;;;;0.00;0.00;;;8.90;92.50;;;;;;5064540;28;20412;-71
2023/03/19 08:14:53;;;;;;;0.10;0.10;;;8.90;92.50;;;;;;5071287;28;20047;-72
2023/03/19 08:17:19;;;;;;;0.25;0.25;;;8.90;92.60;;;;;;5088288;28;20060;-72
2023/03/19 08:19:45;;;;;;;0.10;0.10;;;9.00;92.50;;;;;;5077833;28;20479;-71
2023/03/19 08:22:11;;;;;;;1.00;1.00;;;9.00;92.60;;;;;;5079142;28;20127;-71
2023/03/19 08:24:37;;;;;;;0.20;0.20;;;8.90;92.50;;;;;;5067215;28;20131;-71
2023/03/19 08:27:02;;;;;;;0.10;0.10;;;8.90;92.60;;;;;;5076865;28;20052;-71
2023/03/19 08:29:28;;;;;;;0.03;0.03;;;8.90;92.60;;;;;;5078853;28;20443;-71
2023/03/19 08:31:55;;;;;;;0.35;0.35;;;8.90;92.60;;;;;;5091212;28;20109;-71
2023/03/19 08:34:21;;;;;;;0.35;0.35;;;8.80;92.70;;;;;;5090389;28;20048;-71
2023/03/19 08:36:47;;;;;;;0.03;0.03;;;8.90;92.70;;;;;;5076870;28;20071;-71
2023/03/19 08:39:13;;;;;;;0.52;0.52;;;8.80;92.70;;;;;;5066575;28;20051;-70
2023/03/19 08:41:38;;;;;;;0.10;0.10;;;8.80;92.70;;;;;;5090290;28;20555;-70
2023/03/19 08:44:04;;;;;;;0.30;0.30;;;8.70;92.60;;;;;;5088402;28;20639;-70
2023/03/19 08:46:32;;;;;;;0.05;0.05;;;8.70;92.70;;;;;;5080939;28;20094;-70
2023/03/19 08:48:58;;;;;;;0.10;0.10;;;8.60;92.60;;;;;;5084438;28;20184;-70
2023/03/19 08:51:25;;;;;;;0.13;0.13;;;8.60;92.80;;;;;;5087702;28;20069;-70
2023/03/19 08:53:51;;;;;;;0.00;0.00;;;8.60;92.70;;;;;;5095715;28;20052;-71
2023/03/19 08:56:16;;;;;;;0.25;0.25;;;8.60;92.90;;;;;;5076613;28;20071;-71
2023/03/19 08:58:42;;;;;;;0.10;0.10;;;8.60;92.90;;;;;;5078139;28;20489;-71
2023/03/19 09:01:11;;;;;;;0.35;0.35;;;8.60;93.00;;;;;;5054866;28;20047;-71
2023/03/19 09:03:38;;;;;;;0.30;0.30;;;8.60;92.90;;;;;;5077180;28;20048;-70
2023/03/19 09:06:07;;;;;;;0.10;0.10;;;8.60;92.90;;;;;;5084174;28;20051;-71
2023/03/19 09:08:33;;;;;;;0.10;0.10;;;8.50;92.80;;;;;;5075813;28;20489;-71
2023/03/19 09:10:59;;;;;;;0.10;0.10;;;8.50;93.00;;;;;;5087788;28;20078;-70
2023/03/19 09:13:25;;;;;;;0.20;0.20;;;8.50;93.00;;;;;;5055741;28;20080;-71
2023/03/19 09:15:51;;;;;;;0.00;0.00;;;8.50;93.00;;;;;;5084674;28;20044;-71
2023/03/19 09:18:19;;;;;;;1.13;0.52;;;8.50;93.10;;;;;;5087283;28;20411;-71
2023/03/19 09:20:45;;;;;;;0.28;0.28;;;8.60;93.10;;;;;;5075481;28;20052;-71
2023/03/19 09:23:11;;;;;;;0.63;0.63;;;8.60;93.10;;;;;;5082238;28;20085;-71
2023/03/19 09:25:37;;;;;;;0.77;0.70;;;8.60;93.00;;;;;;5086552;28;20040;-71
2023/03/19 09:28:02;;;;;;;0.10;0.10;;;8.60;93.10;;;;;;5097310;28;20083;-70
2023/03/19 09:30:28;;;;;;;0.10;0.10;;;8.60;93.10;;;;;;5076473;28;20135;-71
2023/03/19 09:32:54;;;;;;;0.90;0.90;;;8.60;93.10;;;;;;5082152;28;20060;-70
2023/03/19 09:35:19;;;;;;;0.10;0.10;;;8.60;93.20;;;;;;5082046;28;20449;-70
2023/03/19 09:37:46;;;;;;;0.57;0.57;;;8.60;93.20;;;;;;5103314;28;20063;-71
2023/03/19 09:40:23;;;;;;;1.02;0.82;;;8.70;93.40;;;;;;5077132;28;20501;-70
2023/03/19 09:43:33;;;;;;;0.10;0.10;;;8.70;93.40;;;;;;5068730;28;20052;-71
2023/03/19 09:46:02;;;;;;;0.20;0.20;;;8.80;93.40;;;;;;5074164;28;20094;-71
2023/03/19 09:48:51;;;;;;;0.10;0.10;;;8.80;93.30;;;;;;5069407;28;20467;-71
2023/03/19 09:51:39;;;;;;;0.10;0.10;;;8.80;93.40;;;;;;5067538;28;20056;-71
2023/03/19 09:54:21;;;;;;;0.30;0.30;;;8.80;93.40;;;;;;5070948;28;20420;-71
2023/03/19 09:56:47;;;;;;;0.88;0.88;;;8.90;93.40;;;;;;5068602;28;20064;-71
2023/03/19 09:59:13;;;;;;;0.10;0.10;;;8.90;93.50;;;;;;5072381;28;20047;-71
2023/03/19 10:01:44;;;;;;;0.00;0.00;;;8.90;93.60;;;;;;5044868;28;20681;-71
2023/03/19 10:04:27;;;;;;;0.60;0.60;;;9.00;93.50;;;;;;5044621;28;20048;-70
2023/03/19 10:07:14;;;;;;;0.00;0.00;;;9.10;93.40;;;;;;5082615;28;20087;-70
2023/03/19 10:10:15;;;;;;;0.73;0.73;;;9.00;93.30;;;;;;5084096;28;20447;-70
2023/03/19 10:13:06;;;;;;;0.45;0.45;;;9.00;93.30;;;;;;5078032;28;20553;-71
2023/03/19 10:15:34;;;;;;;2.50;0.70;;;9.10;93.40;;;;;;5077828;28;20048;-71
2023/03/19 10:17:59;;;;;;;0.03;0.03;;;9.10;93.20;;;;;;5071246;28;20109;-71
2023/03/19 10:20:31;;;;;;;0.00;0.00;;;9.10;93.30;;;;;;5074955;28;20048;-70
2023/03/19 10:23:07;;;;;;;;;;;9.10;93.20;;;;;;5074723;28;20048;-70
2023/03/19 10:25:36;;;;;;;1.13;1.02;;;9.10;93.10;;;;;;5083675;28;20269;-71
2023/03/19 10:28:16;;;;;;;0.20;0.20;;;9.10;93.00;;;;;;5081750;28;20423;-70
2023/03/19 10:30:47;;;;;;;0.08;0.08;;;9.10;93.00;;;;;;5076846;28;20036;-70
2023/03/19 10:33:20;;;;;;;0.00;0.00;;;9.10;92.90;;;;;;5084602;28;20087;-70
2023/03/19 10:35:49;;;;;;;0.30;0.30;;;9.10;93.00;;;;;;5088521;28;20112;-70
2023/03/19 10:38:20;;;;;;;0.52;0.52;;;9.10;92.90;;;;;;5086012;28;20064;-69
2023/03/19 10:41:17;;;;;;;1.85;0.45;;;9.10;92.80;;;;;;5071834;28;20087;-70
2023/03/19 10:43:49;;;;;;;0.00;0.00;;;9.20;92.80;;;;;;5090043;28;20062;-69
2023/03/19 10:46:16;;;;;;;0.10;0.10;;;9.10;92.70;;;;;;5090585;28;20098;-70
2023/03/19 10:48:45;;;;;;;0.68;0.68;;;9.20;92.70;;;;;;5071935;28;20056;-70
2023/03/19 10:51:17;;;;;;;1.45;0.95;;;9.20;92.60;;;;;;5087478;28;20048;-71
2023/03/19 10:53:43;;;;;;;0.00;0.00;;;9.20;92.60;;;;;;5082288;28;20060;-69
2023/03/19 10:56:19;;;;;;;0.00;0.00;;;9.20;92.50;;;;;;5084945;28;20503;-69
2023/03/19 10:59:04;;;;;;;0.00;0.00;;;9.30;92.50;;;;;;5086832;28;20052;-70
2023/03/19 11:01:36;;;;;;;2.45;0.65;;;9.30;92.40;;;;;;5085697;28;20036;-70
2023/03/19 11:04:12;;;;;;;0.00;0.00;;;9.30;92.40;;;;;;5081922;28;20044;-70
2023/03/19 11:06:39;;;;;;;0.00;0.00;;;9.30;92.40;;;;;;5081310;28;20043;-70
2023/03/19 11:09:07;;;;;;;0.20;0.20;;;9.30;92.50;;;;;;5086656;28;20388;-70
2023/03/19 11:11:36;;;;;;;1.58;1.48;;;9.40;92.60;;;;;;5077658;28;20036;-70
2023/03/19 11:14:08;;;;;;;0.80;0.80;;;9.40;92.50;;;;;;5077230;28;20048;-70
2023/03/19 11:16:49;;;;;;;0.00;0.00;;;9.40;92.50;;;;;;5079970;28;20555;-70
2023/03/19 11:19:20;;;;;;;0.10;0.10;;;9.40;92.50;;;;;;5082953;28;20927;-70
2023/03/19 11:22:13;;;;;;;0.20;0.20;;;9.40;92.40;;;;;;5086117;28;20480;-70
2023/03/19 11:24:40;;;;;;;0.05;0.05;;;9.40;92.50;;;;;;5036577;28;20057;-70
2023/03/19 11:27:08;;;;;;;0.75;0.75;;;9.50;92.40;;;;;;5089289;28;20044;-70
2023/03/19 11:29:42;;;;;;;0.00;0.00;;;9.50;92.40;;;;;;5083444;28;20043;-69
2023/03/19 11:32:29;;;;;;;0.25;0.17;;;9.60;92.40;;;;;;5086570;28;20040;-69
2023/03/19 11:35:07;;;;;;;1.33;0.93;;;9.60;92.30;;;;;;5091488;28;20058;-69
2023/03/19 11:37:51;;;;;;;0.00;0.00;;;9.70;92.30;;;;;;5088227;28;20572;-70
2023/03/19 11:40:33;;;;;;;0.25;0.25;;;9.70;92.20;;;;;;5087533;28;20035;-70
2023/03/19 11:43:17;;;;;;;0.00;0.00;;;9.80;92.20;;;;;;5089869;28;20089;-70
2023/03/19 11:45:58;;;;;;;0.00;0.00;;;9.80;92.10;;;;;;5086370;28;20058;-70
2023/03/19 11:49:00;;;;;;;0.30;0.30;;;9.90;92.10;;;;;;5066545;28;20809;-69
2023/03/19 11:51:41;;;;;;;0.00;0.00;;;9.90;92.10;;;;;;5067117;28;20084;-70
2023/03/19 11:54:24;;;;;;;0.10;0.10;;;9.90;92.00;;;;;;5086290;28;20052;-67
2023/03/19 11:57:07;;;;;;;0.65;0.65;;;9.90;91.90;;;;;;5069115;28;20075;-69
2023/03/19 11:59:50;;;;;;;0.00;0.00;;;10.00;91.90;;;;;;5084941;28;20456;-62
2023/03/19 12:02:20;;;;;;;0.03;0.03;;;10.10;92.90;;;;;;5067372;28;20044;-61
2023/03/19 12:04:57;;;;;;;0.00;0.00;;;10.40;92.00;;;;;;5084786;28;20048;-61
2023/03/19 12:07:47;;;;;;;0.30;0.30;;;10.60;92.00;;;;;;5071101;28;20438;-61
2023/03/19 12:10:32;;;;;;;0.45;0.45;;;10.80;91.20;;;;;;5084504;28;20032;-61
2023/03/19 12:13:23;;;;;;;0.00;0.00;;;11.00;90.70;;;;;;5088119;28;20037;-61
2023/03/19 12:15:55;;;;;;;0.32;0.32;;;11.10;90.10;;;;;;5090683;28;20096;-61
2023/03/19 12:18:53;;;;;;;0.20;0.20;;;11.00;89.10;;;;;;5090006;28;20035;-61
2023/03/19 12:21:34;;;;;;;0.00;0.00;;;11.00;88.90;;;;;;5083947;28;20566;-61
2023/03/19 12:24:16;;;;;;;0.00;0.00;;;10.90;89.00;;;;;;5076557;28;20374;-67
2023/03/19 12:27:14;;;;;;;0.15;0.15;;;10.90;88.80;;;;;;5064725;28;20082;-70
2023/03/19 12:30:10;;;;;;;0.00;0.00;;;10.80;89.00;;;;;;5083822;28;20048;-69
2023/03/19 12:33:02;;;;;;;0.30;0.30;;;10.80;89.10;;;;;;5091786;28;20509;-72
2023/03/19 12:35:37;;;;;;;2.90;0.35;;;10.70;89.00;;;;;;5089952;28;20793;-70
2023/03/19 12:38:16;;;;;;;0.50;0.50;;;10.60;89.00;;;;;;5090320;28;20054;-70
2023/03/19 12:41:09;;;;;;;4.85;2.17;;;10.60;89.30;;;;;;5107241;28;20079;-70
2023/03/19 12:43:56;;;;;;;4.60;2.13;;;10.40;89.50;;;;;;5086155;28;20044;-71
2023/03/19 12:46:43;;;;;;;0.52;0.52;;;10.40;89.60;;;;;;5077327;28;20051;-71
2023/03/19 12:49:20;;;;;;;0.50;0.45;;;10.40;89.80;;;;;;5099127;28;20055;-71
2023/03/19 12:51:51;;;;;;;0.68;0.68;;;10.40;90.00;;;;;;5083466;28;20058;-71
2023/03/19 12:54:26;;;;;;;0.47;0.47;;;10.40;90.00;;;;;;5073127;28;20607;-71
2023/03/19 12:56:58;;;;;;;0.10;0.10;;;10.40;90.10;;;;;;5069699;28;20420;-71
2023/03/19 12:59:48;;;;;;;0.22;0.22;;;10.40;90.10;;;;;;5096115;28;20465;-70
2023/03/19 13:02:34;;;;;;;0.10;0.10;;;10.40;90.20;;;;;;5092646;28;20067;-70
2023/03/19 13:05:28;;;;;;;0.10;0.10;;;10.40;90.30;;;;;;5090674;28;20527;-71